sensor_id;sensor_type;location;lat;lon;timestamp;P1;durP1;ratioP1;P2;durP2;ratioP2
18084;SDS011;9169;44.492;11.372;2022-09-28T00:01:43;45.60;;;3.20;;
18084;SDS011;9169;44.492;11.372;2022-09-28T00:04:10;47.40;;;3.47;;
18084;SDS011;9169;44.492;11.372;2022-09-28T00:06:37;51.63;;;3.20;;
18084;SDS011;9169;44.492;11.372;2022-09-28T00:09:04;43.83;;;3.40;;
18084;SDS011;9169;44.492;11.372;2022-09-28T00:11:31;43.17;;;3.00;;
18084;SDS011;9169;44.492;11.372;2022-09-28T00:14:00;43.60;;;3.10;;
18084;SDS011;9169;44.492;11.372;2022-09-28T00:16:28;45.80;;;3.17;;
18084;SDS011;9169;44.492;11.372;2022-09-28T00:18:56;44.77;;;3.10;;
18084;SDS011;9169;44.492;11.372;2022-09-28T00:21:24;45.13;;;3.03;;
18084;SDS011;9169;44.492;11.372;2022-09-28T00:23:52;45.40;;;3.20;;
18084;SDS011;9169;44.492;11.372;2022-09-28T00:26:40;44.23;;;3.10;;
18084;SDS011;9169;44.492;11.372;2022-09-28T00:29:21;44.03;;;2.70;;
18084;SDS011;9169;44.492;11.372;2022-09-28T00:31:50;44.63;;;2.90;;
18084;SDS011;9169;44.492;11.372;2022-09-28T00:34:21;47.90;;;3.37;;
18084;SDS011;9169;44.492;11.372;2022-09-28T00:36:48;53.47;;;4.63;;
18084;SDS011;9169;44.492;11.372;2022-09-28T00:39:14;50.37;;;4.00;;
18084;SDS011;9169;44.492;11.372;2022-09-28T00:41:42;48.03;;;3.57;;
18084;SDS011;9169;44.492;11.372;2022-09-28T00:47:08;47.47;;;3.53;;
18084;SDS011;9169;44.492;11.372;2022-09-28T00:49:47;48.43;;;3.93;;
18084;SDS011;9169;44.492;11.372;2022-09-28T00:52:20;48.33;;;3.50;;
18084;SDS011;9169;44.492;11.372;2022-09-28T00:54:51;45.80;;;3.57;;
18084;SDS011;9169;44.492;11.372;2022-09-28T00:57:20;46.93;;;3.73;;
18084;SDS011;9169;44.492;11.372;2022-09-28T00:59:49;45.97;;;2.93;;
18084;SDS011;9169;44.492;11.372;2022-09-28T01:02:17;47.83;;;3.70;;
18084;SDS011;9169;44.492;11.372;2022-09-28T01:04:44;46.30;;;3.47;;
18084;SDS011;9169;44.492;11.372;2022-09-28T01:07:12;48.40;;;3.10;;
18084;SDS011;9169;44.492;11.372;2022-09-28T01:09:42;43.13;;;2.83;;
18084;SDS011;9169;44.492;11.372;2022-09-28T01:12:10;49.27;;;3.37;;
18084;SDS011;9169;44.492;11.372;2022-09-28T01:14:38;47.47;;;3.33;;
18084;SDS011;9169;44.492;11.372;2022-09-28T01:17:09;46.40;;;4.10;;
18084;SDS011;9169;44.492;11.372;2022-09-28T01:25:57;48.93;;;3.83;;
18084;SDS011;9169;44.492;11.372;2022-09-28T01:28:48;46.10;;;3.20;;
18084;SDS011;9169;44.492;11.372;2022-09-28T01:31:19;50.67;;;3.70;;
18084;SDS011;9169;44.492;11.372;2022-09-28T01:33:53;51.30;;;3.60;;
18084;SDS011;9169;44.492;11.372;2022-09-28T01:36:26;47.00;;;3.13;;
18084;SDS011;9169;44.492;11.372;2022-09-28T01:38:57;47.00;;;3.30;;
18084;SDS011;9169;44.492;11.372;2022-09-28T01:41:27;47.43;;;3.13;;
18084;SDS011;9169;44.492;11.372;2022-09-28T01:43:58;45.17;;;3.03;;
18084;SDS011;9169;44.492;11.372;2022-09-28T01:46:28;46.00;;;2.80;;
18084;SDS011;9169;44.492;11.372;2022-09-28T01:48:58;47.77;;;3.20;;
18084;SDS011;9169;44.492;11.372;2022-09-28T01:51:31;47.47;;;3.50;;
18084;SDS011;9169;44.492;11.372;2022-09-28T01:54:05;48.17;;;3.10;;
18084;SDS011;9169;44.492;11.372;2022-09-28T01:56:38;47.37;;;3.73;;
18084;SDS011;9169;44.492;11.372;2022-09-28T01:59:10;50.90;;;3.63;;
18084;SDS011;9169;44.492;11.372;2022-09-28T02:01:41;47.30;;;3.27;;
18084;SDS011;9169;44.492;11.372;2022-09-28T02:04:14;47.67;;;2.97;;
18084;SDS011;9169;44.492;11.372;2022-09-28T02:06:44;48.50;;;3.13;;
18084;SDS011;9169;44.492;11.372;2022-09-28T02:09:17;47.37;;;3.03;;
18084;SDS011;9169;44.492;11.372;2022-09-28T02:11:49;52.80;;;4.10;;
18084;SDS011;9169;44.492;11.372;2022-09-28T02:14:22;47.53;;;3.07;;
18084;SDS011;9169;44.492;11.372;2022-09-28T02:16:53;50.47;;;3.30;;
18084;SDS011;9169;44.492;11.372;2022-09-28T02:19:23;48.17;;;3.53;;
18084;SDS011;9169;44.492;11.372;2022-09-28T02:21:53;48.90;;;2.90;;
18084;SDS011;9169;44.492;11.372;2022-09-28T02:24:26;52.07;;;3.60;;
18084;SDS011;9169;44.492;11.372;2022-09-28T02:26:58;47.57;;;3.03;;
18084;SDS011;9169;44.492;11.372;2022-09-28T02:29:30;49.17;;;3.80;;
18084;SDS011;9169;44.492;11.372;2022-09-28T02:31:56;48.80;;;3.27;;
18084;SDS011;9169;44.492;11.372;2022-09-28T02:34:23;56.63;;;3.80;;
18084;SDS011;9169;44.492;11.372;2022-09-28T02:36:51;49.93;;;3.23;;
18084;SDS011;9169;44.492;11.372;2022-09-28T02:39:18;51.93;;;3.63;;
18084;SDS011;9169;44.492;11.372;2022-09-28T02:41:47;46.87;;;3.30;;
18084;SDS011;9169;44.492;11.372;2022-09-28T02:44:36;52.10;;;3.57;;
18084;SDS011;9169;44.492;11.372;2022-09-28T02:47:11;48.20;;;3.50;;
18084;SDS011;9169;44.492;11.372;2022-09-28T02:49:47;50.63;;;3.20;;
18084;SDS011;9169;44.492;11.372;2022-09-28T02:52:27;50.77;;;3.77;;
18084;SDS011;9169;44.492;11.372;2022-09-28T02:55:11;51.10;;;3.43;;
18084;SDS011;9169;44.492;11.372;2022-09-28T03:00:50;50.67;;;3.83;;
18084;SDS011;9169;44.492;11.372;2022-09-28T03:03:23;51.93;;;4.07;;
18084;SDS011;9169;44.492;11.372;2022-09-28T03:05:58;50.77;;;3.60;;
18084;SDS011;9169;44.492;11.372;2022-09-28T03:08:30;50.23;;;3.97;;
18084;SDS011;9169;44.492;11.372;2022-09-28T03:11:03;50.17;;;3.10;;
18084;SDS011;9169;44.492;11.372;2022-09-28T03:13:34;54.57;;;4.50;;
18084;SDS011;9169;44.492;11.372;2022-09-28T03:16:08;51.70;;;3.40;;
18084;SDS011;9169;44.492;11.372;2022-09-28T03:18:35;48.70;;;3.67;;
18084;SDS011;9169;44.492;11.372;2022-09-28T03:21:03;65.33;;;4.67;;
18084;SDS011;9169;44.492;11.372;2022-09-28T03:23:30;48.87;;;3.00;;
18084;SDS011;9169;44.492;11.372;2022-09-28T03:25:58;50.87;;;3.83;;
18084;SDS011;9169;44.492;11.372;2022-09-28T03:28:24;49.70;;;3.43;;
18084;SDS011;9169;44.492;11.372;2022-09-28T03:30:52;52.93;;;3.93;;
18084;SDS011;9169;44.492;11.372;2022-09-28T03:33:21;52.17;;;3.83;;
18084;SDS011;9169;44.492;11.372;2022-09-28T03:35:48;55.10;;;4.60;;
18084;SDS011;9169;44.492;11.372;2022-09-28T03:38:15;55.97;;;4.93;;
18084;SDS011;9169;44.492;11.372;2022-09-28T03:40:42;56.40;;;4.17;;
18084;SDS011;9169;44.492;11.372;2022-09-28T03:43:09;51.23;;;3.50;;
18084;SDS011;9169;44.492;11.372;2022-09-28T03:45:36;49.60;;;3.70;;
18084;SDS011;9169;44.492;11.372;2022-09-28T03:48:03;52.40;;;4.07;;
18084;SDS011;9169;44.492;11.372;2022-09-28T03:50:31;49.20;;;3.63;;
18084;SDS011;9169;44.492;11.372;2022-09-28T03:53:02;52.10;;;4.50;;
18084;SDS011;9169;44.492;11.372;2022-09-28T03:55:29;61.80;;;4.33;;
18084;SDS011;9169;44.492;11.372;2022-09-28T03:57:56;51.83;;;3.33;;
18084;SDS011;9169;44.492;11.372;2022-09-28T04:00:23;50.67;;;4.37;;
18084;SDS011;9169;44.492;11.372;2022-09-28T04:02:50;63.97;;;4.40;;
18084;SDS011;9169;44.492;11.372;2022-09-28T04:05:16;50.80;;;4.43;;
18084;SDS011;9169;44.492;11.372;2022-09-28T04:07:45;55.80;;;4.90;;
18084;SDS011;9169;44.492;11.372;2022-09-28T04:10:12;52.07;;;4.43;;
18084;SDS011;9169;44.492;11.372;2022-09-28T04:12:39;49.03;;;4.30;;
18084;SDS011;9169;44.492;11.372;2022-09-28T04:15:06;50.00;;;3.97;;
18084;SDS011;9169;44.492;11.372;2022-09-28T04:17:33;55.30;;;4.40;;
18084;SDS011;9169;44.492;11.372;2022-09-28T04:20:00;50.70;;;3.90;;
18084;SDS011;9169;44.492;11.372;2022-09-28T04:22:28;52.43;;;4.70;;
18084;SDS011;9169;44.492;11.372;2022-09-28T04:24:56;50.57;;;3.50;;
18084;SDS011;9169;44.492;11.372;2022-09-28T04:27:23;48.17;;;3.87;;
18084;SDS011;9169;44.492;11.372;2022-09-28T04:30:08;54.87;;;4.40;;
18084;SDS011;9169;44.492;11.372;2022-09-28T04:32:36;50.00;;;4.10;;
18084;SDS011;9169;44.492;11.372;2022-09-28T04:35:03;48.17;;;3.40;;
18084;SDS011;9169;44.492;11.372;2022-09-28T04:37:31;51.10;;;4.00;;
18084;SDS011;9169;44.492;11.372;2022-09-28T04:39:59;56.27;;;4.73;;
18084;SDS011;9169;44.492;11.372;2022-09-28T04:42:27;51.07;;;4.40;;
18084;SDS011;9169;44.492;11.372;2022-09-28T04:44:54;49.90;;;3.73;;
18084;SDS011;9169;44.492;11.372;2022-09-28T04:47:22;55.43;;;3.80;;
18084;SDS011;9169;44.492;11.372;2022-09-28T04:49:49;55.83;;;3.70;;
18084;SDS011;9169;44.492;11.372;2022-09-28T04:52:16;56.20;;;5.30;;
18084;SDS011;9169;44.492;11.372;2022-09-28T04:54:43;55.60;;;4.30;;
18084;SDS011;9169;44.492;11.372;2022-09-28T04:57:11;54.87;;;4.20;;
18084;SDS011;9169;44.492;11.372;2022-09-28T04:59:38;66.37;;;5.20;;
18084;SDS011;9169;44.492;11.372;2022-09-28T05:02:05;58.30;;;4.60;;
18084;SDS011;9169;44.492;11.372;2022-09-28T05:04:32;58.00;;;4.90;;
18084;SDS011;9169;44.492;11.372;2022-09-28T05:06:58;55.03;;;4.47;;
18084;SDS011;9169;44.492;11.372;2022-09-28T05:09:25;54.20;;;4.57;;
18084;SDS011;9169;44.492;11.372;2022-09-28T05:11:52;59.60;;;5.53;;
18084;SDS011;9169;44.492;11.372;2022-09-28T05:14:21;55.80;;;4.60;;
18084;SDS011;9169;44.492;11.372;2022-09-28T05:16:48;59.17;;;4.43;;
18084;SDS011;9169;44.492;11.372;2022-09-28T05:19:15;62.97;;;5.67;;
18084;SDS011;9169;44.492;11.372;2022-09-28T05:21:42;59.77;;;4.67;;
18084;SDS011;9169;44.492;11.372;2022-09-28T05:24:11;56.83;;;4.80;;
18084;SDS011;9169;44.492;11.372;2022-09-28T05:26:38;58.13;;;4.70;;
18084;SDS011;9169;44.492;11.372;2022-09-28T05:29:05;66.00;;;10.50;;
18084;SDS011;9169;44.492;11.372;2022-09-28T05:31:33;61.43;;;5.70;;
18084;SDS011;9169;44.492;11.372;2022-09-28T05:34:00;76.00;;;18.53;;
18084;SDS011;9169;44.492;11.372;2022-09-28T05:36:27;60.17;;;5.30;;
18084;SDS011;9169;44.492;11.372;2022-09-28T05:38:54;58.40;;;4.80;;
18084;SDS011;9169;44.492;11.372;2022-09-28T05:41:21;77.37;;;18.33;;
18084;SDS011;9169;44.492;11.372;2022-09-28T05:43:48;64.30;;;5.77;;
18084;SDS011;9169;44.492;11.372;2022-09-28T05:46:16;80.37;;;18.03;;
18084;SDS011;9169;44.492;11.372;2022-09-28T05:48:46;68.20;;;5.70;;
18084;SDS011;9169;44.492;11.372;2022-09-28T05:51:13;68.33;;;7.80;;
18084;SDS011;9169;44.492;11.372;2022-09-28T05:53:41;82.40;;;22.07;;
18084;SDS011;9169;44.492;11.372;2022-09-28T05:56:07;71.63;;;6.80;;
18084;SDS011;9169;44.492;11.372;2022-09-28T05:58:35;67.20;;;9.60;;
18084;SDS011;9169;44.492;11.372;2022-09-28T06:01:02;74.10;;;9.03;;
18084;SDS011;9169;44.492;11.372;2022-09-28T06:03:28;72.77;;;13.27;;
18084;SDS011;9169;44.492;11.372;2022-09-28T06:05:58;68.07;;;6.80;;
18084;SDS011;9169;44.492;11.372;2022-09-28T06:08:25;67.30;;;8.30;;
18084;SDS011;9169;44.492;11.372;2022-09-28T06:10:52;66.27;;;5.87;;
18084;SDS011;9169;44.492;11.372;2022-09-28T06:13:23;64.17;;;5.70;;
18084;SDS011;9169;44.492;11.372;2022-09-28T06:15:51;78.13;;;13.37;;
18084;SDS011;9169;44.492;11.372;2022-09-28T06:18:18;71.97;;;8.50;;
18084;SDS011;9169;44.492;11.372;2022-09-28T06:20:45;75.40;;;9.13;;
18084;SDS011;9169;44.492;11.372;2022-09-28T06:23:14;71.20;;;9.97;;
18084;SDS011;9169;44.492;11.372;2022-09-28T06:25:41;78.33;;;13.87;;
18084;SDS011;9169;44.492;11.372;2022-09-28T06:28:08;71.77;;;9.33;;
18084;SDS011;9169;44.492;11.372;2022-09-28T06:30:36;73.10;;;11.60;;
18084;SDS011;9169;44.492;11.372;2022-09-28T06:33:04;70.90;;;7.60;;
18084;SDS011;9169;44.492;11.372;2022-09-28T06:35:33;72.67;;;9.97;;
18084;SDS011;9169;44.492;11.372;2022-09-28T06:38:00;70.63;;;7.53;;
18084;SDS011;9169;44.492;11.372;2022-09-28T06:40:29;68.77;;;8.57;;
18084;SDS011;9169;44.492;11.372;2022-09-28T06:42:56;73.73;;;8.57;;
18084;SDS011;9169;44.492;11.372;2022-09-28T06:45:24;71.90;;;8.03;;
18084;SDS011;9169;44.492;11.372;2022-09-28T06:47:52;72.27;;;8.10;;
18084;SDS011;9169;44.492;11.372;2022-09-28T06:50:20;68.83;;;7.07;;
18084;SDS011;9169;44.492;11.372;2022-09-28T06:52:48;73.03;;;8.87;;
18084;SDS011;9169;44.492;11.372;2022-09-28T06:55:17;74.10;;;9.53;;
18084;SDS011;9169;44.492;11.372;2022-09-28T06:57:45;75.77;;;9.40;;
18084;SDS011;9169;44.492;11.372;2022-09-28T07:00:13;72.67;;;10.30;;
18084;SDS011;9169;44.492;11.372;2022-09-28T07:02:40;74.73;;;11.07;;
18084;SDS011;9169;44.492;11.372;2022-09-28T07:05:08;74.47;;;10.90;;
18084;SDS011;9169;44.492;11.372;2022-09-28T07:07:37;71.77;;;10.37;;
18084;SDS011;9169;44.492;11.372;2022-09-28T07:10:07;76.93;;;10.33;;
18084;SDS011;9169;44.492;11.372;2022-09-28T07:12:35;72.67;;;9.80;;
18084;SDS011;9169;44.492;11.372;2022-09-28T07:15:04;74.17;;;10.07;;
18084;SDS011;9169;44.492;11.372;2022-09-28T07:17:33;71.47;;;7.93;;
18084;SDS011;9169;44.492;11.372;2022-09-28T07:20:00;77.00;;;9.17;;
18084;SDS011;9169;44.492;11.372;2022-09-28T07:22:27;74.30;;;8.47;;
18084;SDS011;9169;44.492;11.372;2022-09-28T07:24:55;73.33;;;8.60;;
18084;SDS011;9169;44.492;11.372;2022-09-28T07:27:22;73.90;;;8.43;;
18084;SDS011;9169;44.492;11.372;2022-09-28T07:29:49;72.07;;;8.33;;
18084;SDS011;9169;44.492;11.372;2022-09-28T07:32:18;77.13;;;8.50;;
18084;SDS011;9169;44.492;11.372;2022-09-28T07:34:45;75.70;;;8.67;;
18084;SDS011;9169;44.492;11.372;2022-09-28T07:37:14;70.17;;;8.63;;
18084;SDS011;9169;44.492;11.372;2022-09-28T07:39:43;76.77;;;9.83;;
18084;SDS011;9169;44.492;11.372;2022-09-28T07:42:32;73.90;;;10.17;;
18084;SDS011;9169;44.492;11.372;2022-09-28T07:45:00;70.33;;;8.70;;
18084;SDS011;9169;44.492;11.372;2022-09-28T07:47:28;78.40;;;9.17;;
18084;SDS011;9169;44.492;11.372;2022-09-28T07:49:55;71.33;;;8.23;;
18084;SDS011;9169;44.492;11.372;2022-09-28T07:52:22;81.57;;;9.67;;
18084;SDS011;9169;44.492;11.372;2022-09-28T07:54:50;70.80;;;10.70;;
18084;SDS011;9169;44.492;11.372;2022-09-28T07:57:18;69.23;;;8.73;;
18084;SDS011;9169;44.492;11.372;2022-09-28T07:59:45;70.20;;;10.43;;
18084;SDS011;9169;44.492;11.372;2022-09-28T08:02:13;70.47;;;8.43;;
18084;SDS011;9169;44.492;11.372;2022-09-28T08:04:41;71.27;;;8.47;;
18084;SDS011;9169;44.492;11.372;2022-09-28T08:07:08;68.90;;;8.10;;
18084;SDS011;9169;44.492;11.372;2022-09-28T08:09:35;69.17;;;8.73;;
18084;SDS011;9169;44.492;11.372;2022-09-28T08:12:02;69.83;;;8.60;;
18084;SDS011;9169;44.492;11.372;2022-09-28T08:14:29;77.10;;;9.77;;
18084;SDS011;9169;44.492;11.372;2022-09-28T08:16:58;66.83;;;8.47;;
18084;SDS011;9169;44.492;11.372;2022-09-28T08:19:25;66.43;;;9.50;;
18084;SDS011;9169;44.492;11.372;2022-09-28T08:22:15;72.93;;;9.13;;
18084;SDS011;9169;44.492;11.372;2022-09-28T08:24:42;70.70;;;9.60;;
18084;SDS011;9169;44.492;11.372;2022-09-28T08:27:09;68.33;;;9.60;;
18084;SDS011;9169;44.492;11.372;2022-09-28T08:29:36;71.43;;;11.20;;
18084;SDS011;9169;44.492;11.372;2022-09-28T08:32:03;70.43;;;9.80;;
18084;SDS011;9169;44.492;11.372;2022-09-28T08:34:32;67.17;;;8.80;;
18084;SDS011;9169;44.492;11.372;2022-09-28T08:36:59;67.37;;;8.27;;
18084;SDS011;9169;44.492;11.372;2022-09-28T08:39:27;68.23;;;8.57;;
18084;SDS011;9169;44.492;11.372;2022-09-28T08:41:58;73.40;;;9.57;;
18084;SDS011;9169;44.492;11.372;2022-09-28T08:44:38;70.40;;;9.90;;
18084;SDS011;9169;44.492;11.372;2022-09-28T08:47:10;68.80;;;8.50;;
18084;SDS011;9169;44.492;11.372;2022-09-28T08:50:02;69.63;;;9.87;;
18084;SDS011;9169;44.492;11.372;2022-09-28T08:52:35;63.93;;;8.40;;
18084;SDS011;9169;44.492;11.372;2022-09-28T08:55:08;76.70;;;10.50;;
18084;SDS011;9169;44.492;11.372;2022-09-28T08:57:42;66.67;;;11.73;;
18084;SDS011;9169;44.492;11.372;2022-09-28T09:00:15;66.17;;;12.70;;
18084;SDS011;9169;44.492;11.372;2022-09-28T09:02:45;65.10;;;12.07;;
18084;SDS011;9169;44.492;11.372;2022-09-28T09:05:15;71.13;;;13.10;;
18084;SDS011;9169;44.492;11.372;2022-09-28T09:07:52;69.63;;;13.80;;
18084;SDS011;9169;44.492;11.372;2022-09-28T09:10:51;66.67;;;12.40;;
18084;SDS011;9169;44.492;11.372;2022-09-28T09:16:24;68.80;;;12.80;;
18084;SDS011;9169;44.492;11.372;2022-09-28T09:18:59;66.33;;;10.37;;
18084;SDS011;9169;44.492;11.372;2022-09-28T09:21:39;66.00;;;9.10;;
18084;SDS011;9169;44.492;11.372;2022-09-28T09:24:13;68.93;;;11.07;;
18084;SDS011;9169;44.492;11.372;2022-09-28T09:26:55;70.00;;;10.50;;
18084;SDS011;9169;44.492;11.372;2022-09-28T09:29:32;66.37;;;8.57;;
18084;SDS011;9169;44.492;11.372;2022-09-28T09:32:21;64.17;;;9.93;;
18084;SDS011;9169;44.492;11.372;2022-09-28T09:35:01;66.77;;;7.60;;
18084;SDS011;9169;44.492;11.372;2022-09-28T09:37:44;68.27;;;8.07;;
18084;SDS011;9169;44.492;11.372;2022-09-28T09:40:32;65.07;;;8.07;;
18084;SDS011;9169;44.492;11.372;2022-09-28T09:46:14;58.30;;;12.30;;
18084;SDS011;9169;44.492;11.372;2022-09-28T09:48:46;63.87;;;11.80;;
18084;SDS011;9169;44.492;11.372;2022-09-28T09:51:18;63.70;;;14.53;;
18084;SDS011;9169;44.492;11.372;2022-09-28T09:53:51;56.27;;;7.27;;
18084;SDS011;9169;44.492;11.372;2022-09-28T09:56:25;56.60;;;6.90;;
18084;SDS011;9169;44.492;11.372;2022-09-28T09:59:00;57.03;;;7.07;;
18084;SDS011;9169;44.492;11.372;2022-09-28T10:01:33;57.20;;;9.27;;
18084;SDS011;9169;44.492;11.372;2022-09-28T10:04:03;57.70;;;8.33;;
18084;SDS011;9169;44.492;11.372;2022-09-28T10:06:36;48.00;;;5.73;;
18084;SDS011;9169;44.492;11.372;2022-09-28T10:09:09;52.30;;;7.60;;
18084;SDS011;9169;44.492;11.372;2022-09-28T10:11:41;49.80;;;7.83;;
18084;SDS011;9169;44.492;11.372;2022-09-28T10:14:12;50.83;;;5.37;;
18084;SDS011;9169;44.492;11.372;2022-09-28T10:16:40;49.03;;;4.80;;
18084;SDS011;9169;44.492;11.372;2022-09-28T10:19:07;51.83;;;4.70;;
18084;SDS011;9169;44.492;11.372;2022-09-28T10:21:36;47.40;;;4.47;;
18084;SDS011;9169;44.492;11.372;2022-09-28T10:24:07;52.00;;;4.87;;
18084;SDS011;9169;44.492;11.372;2022-09-28T10:26:40;43.50;;;3.90;;
18084;SDS011;9169;44.492;11.372;2022-09-28T10:29:13;43.80;;;3.57;;
18084;SDS011;9169;44.492;11.372;2022-09-28T10:31:42;56.40;;;5.30;;
18084;SDS011;9169;44.492;11.372;2022-09-28T10:34:12;43.27;;;3.77;;
18084;SDS011;9169;44.492;11.372;2022-09-28T10:36:45;44.97;;;4.27;;
18084;SDS011;9169;44.492;11.372;2022-09-28T10:39:21;43.77;;;4.00;;
18084;SDS011;9169;44.492;11.372;2022-09-28T10:41:54;44.87;;;5.03;;
18084;SDS011;9169;44.492;11.372;2022-09-28T10:44:24;43.20;;;3.70;;
18084;SDS011;9169;44.492;11.372;2022-09-28T10:46:55;44.60;;;4.03;;
18084;SDS011;9169;44.492;11.372;2022-09-28T10:49:24;42.00;;;4.13;;
18084;SDS011;9169;44.492;11.372;2022-09-28T10:51:52;41.00;;;3.63;;
18084;SDS011;9169;44.492;11.372;2022-09-28T10:54:21;42.47;;;4.10;;
18084;SDS011;9169;44.492;11.372;2022-09-28T10:56:49;53.67;;;12.37;;
18084;SDS011;9169;44.492;11.372;2022-09-28T10:59:22;50.10;;;10.17;;
18084;SDS011;9169;44.492;11.372;2022-09-28T11:02:01;58.73;;;15.27;;
18084;SDS011;9169;44.492;11.372;2022-09-28T11:04:38;45.53;;;9.33;;
18084;SDS011;9169;44.492;11.372;2022-09-28T11:07:12;60.73;;;16.20;;
18084;SDS011;9169;44.492;11.372;2022-09-28T11:09:44;59.37;;;12.30;;
18084;SDS011;9169;44.492;11.372;2022-09-28T11:12:13;60.37;;;11.60;;
18084;SDS011;9169;44.492;11.372;2022-09-28T11:14:44;50.77;;;9.87;;
18084;SDS011;9169;44.492;11.372;2022-09-28T11:17:17;47.10;;;6.77;;
18084;SDS011;9169;44.492;11.372;2022-09-28T11:19:51;47.20;;;3.00;;
18084;SDS011;9169;44.492;11.372;2022-09-28T11:22:23;45.57;;;4.20;;
18084;SDS011;9169;44.492;11.372;2022-09-28T11:25:04;45.57;;;2.80;;
18084;SDS011;9169;44.492;11.372;2022-09-28T11:27:39;45.97;;;4.73;;
18084;SDS011;9169;44.492;11.372;2022-09-28T11:30:21;46.90;;;3.33;;
18084;SDS011;9169;44.492;11.372;2022-09-28T11:32:50;45.60;;;3.80;;
18084;SDS011;9169;44.492;11.372;2022-09-28T11:35:20;44.43;;;2.73;;
18084;SDS011;9169;44.492;11.372;2022-09-28T11:40:43;43.90;;;2.53;;
18084;SDS011;9169;44.492;11.372;2022-09-28T11:43:20;43.60;;;2.40;;
18084;SDS011;9169;44.492;11.372;2022-09-28T11:46:09;44.97;;;2.43;;
18084;SDS011;9169;44.492;11.372;2022-09-28T11:48:41;46.80;;;3.20;;
18084;SDS011;9169;44.492;11.372;2022-09-28T11:51:14;45.10;;;2.90;;
18084;SDS011;9169;44.492;11.372;2022-09-28T11:53:46;45.97;;;2.70;;
18084;SDS011;9169;44.492;11.372;2022-09-28T11:56:27;44.90;;;2.27;;
18084;SDS011;9169;44.492;11.372;2022-09-28T11:58:59;55.33;;;8.60;;
18084;SDS011;9169;44.492;11.372;2022-09-28T12:01:32;44.90;;;4.60;;
18084;SDS011;9169;44.492;11.372;2022-09-28T12:04:05;44.77;;;5.90;;
18084;SDS011;9169;44.492;11.372;2022-09-28T12:06:36;42.50;;;3.57;;
18084;SDS011;9169;44.492;11.372;2022-09-28T12:09:09;44.40;;;4.47;;
18084;SDS011;9169;44.492;11.372;2022-09-28T12:11:41;44.67;;;3.03;;
18084;SDS011;9169;44.492;11.372;2022-09-28T12:14:13;49.40;;;3.10;;
18084;SDS011;9169;44.492;11.372;2022-09-28T12:16:48;46.87;;;3.73;;
18084;SDS011;9169;44.492;11.372;2022-09-28T12:19:20;41.00;;;2.40;;
18084;SDS011;9169;44.492;11.372;2022-09-28T12:21:54;42.03;;;2.57;;
18084;SDS011;9169;44.492;11.372;2022-09-28T12:24:25;42.90;;;2.33;;
18084;SDS011;9169;44.492;11.372;2022-09-28T12:26:57;44.23;;;2.60;;
18084;SDS011;9169;44.492;11.372;2022-09-28T12:29:31;40.97;;;2.60;;
18084;SDS011;9169;44.492;11.372;2022-09-28T12:32:06;41.83;;;2.40;;
18084;SDS011;9169;44.492;11.372;2022-09-28T12:34:39;42.20;;;2.10;;
18084;SDS011;9169;44.492;11.372;2022-09-28T12:37:12;44.50;;;2.60;;
18084;SDS011;9169;44.492;11.372;2022-09-28T12:39:53;41.43;;;2.10;;
18084;SDS011;9169;44.492;11.372;2022-09-28T12:42:39;46.00;;;3.37;;
18084;SDS011;9169;44.492;11.372;2022-09-28T12:45:20;44.20;;;2.47;;
18084;SDS011;9169;44.492;11.372;2022-09-28T12:48:12;42.80;;;2.07;;
18084;SDS011;9169;44.492;11.372;2022-09-28T12:51:07;41.83;;;4.87;;
18084;SDS011;9169;44.492;11.372;2022-09-28T12:53:57;37.90;;;2.00;;
18084;SDS011;9169;44.492;11.372;2022-09-28T12:56:32;40.00;;;2.17;;
18084;SDS011;9169;44.492;11.372;2022-09-28T12:59:09;42.20;;;2.20;;
18084;SDS011;9169;44.492;11.372;2022-09-28T13:01:54;35.20;;;1.80;;
18084;SDS011;9169;44.492;11.372;2022-09-28T13:07:32;35.80;;;1.90;;
18084;SDS011;9169;44.492;11.372;2022-09-28T13:10:08;38.60;;;1.97;;
18084;SDS011;9169;44.492;11.372;2022-09-28T13:12:45;38.60;;;2.50;;
18084;SDS011;9169;44.492;11.372;2022-09-28T13:15:26;37.37;;;2.30;;
18084;SDS011;9169;44.492;11.372;2022-09-28T13:18:05;44.50;;;5.23;;
18084;SDS011;9169;44.492;11.372;2022-09-28T13:20:41;38.47;;;3.77;;
18084;SDS011;9169;44.492;11.372;2022-09-28T13:23:17;45.97;;;5.97;;
18084;SDS011;9169;44.492;11.372;2022-09-28T13:25:50;56.27;;;10.30;;
18084;SDS011;9169;44.492;11.372;2022-09-28T13:28:20;49.20;;;7.10;;
18084;SDS011;9169;44.492;11.372;2022-09-28T13:30:49;47.00;;;6.90;;
18084;SDS011;9169;44.492;11.372;2022-09-28T13:33:20;43.07;;;2.50;;
18084;SDS011;9169;44.492;11.372;2022-09-28T13:35:55;46.10;;;3.50;;
18084;SDS011;9169;44.492;11.372;2022-09-28T13:38:28;51.80;;;6.03;;
18084;SDS011;9169;44.492;11.372;2022-09-28T13:41:17;46.37;;;5.80;;
18084;SDS011;9169;44.492;11.372;2022-09-28T13:44:04;44.83;;;5.13;;
18084;SDS011;9169;44.492;11.372;2022-09-28T13:46:49;43.10;;;3.17;;
18084;SDS011;9169;44.492;11.372;2022-09-28T13:49:26;49.93;;;4.33;;
18084;SDS011;9169;44.492;11.372;2022-09-28T13:52:05;41.27;;;2.13;;
18084;SDS011;9169;44.492;11.372;2022-09-28T13:54:47;42.00;;;2.10;;
18084;SDS011;9169;44.492;11.372;2022-09-28T13:57:23;50.20;;;6.00;;
18084;SDS011;9169;44.492;11.372;2022-09-28T14:00:00;51.03;;;5.70;;
18084;SDS011;9169;44.492;11.372;2022-09-28T14:02:35;50.30;;;3.80;;
18084;SDS011;9169;44.492;11.372;2022-09-28T14:08:17;52.90;;;7.07;;
18084;SDS011;9169;44.492;11.372;2022-09-28T14:10:51;48.93;;;4.40;;
18084;SDS011;9169;44.492;11.372;2022-09-28T14:16:25;48.53;;;3.87;;
18084;SDS011;9169;44.492;11.372;2022-09-28T14:18:56;47.50;;;5.73;;
18084;SDS011;9169;44.492;11.372;2022-09-28T14:21:34;48.17;;;3.77;;
18084;SDS011;9169;44.492;11.372;2022-09-28T14:24:29;50.23;;;4.23;;
18084;SDS011;9169;44.492;11.372;2022-09-28T14:30:20;47.60;;;5.70;;
18084;SDS011;9169;44.492;11.372;2022-09-28T14:32:51;43.00;;;4.70;;
18084;SDS011;9169;44.492;11.372;2022-09-28T14:35:23;40.67;;;2.90;;
18084;SDS011;9169;44.492;11.372;2022-09-28T14:37:56;41.47;;;2.87;;
18084;SDS011;9169;44.492;11.372;2022-09-28T14:40:59;49.80;;;4.17;;
18084;SDS011;9169;44.492;11.372;2022-09-28T14:43:35;44.40;;;4.50;;
18084;SDS011;9169;44.492;11.372;2022-09-28T14:49:42;49.60;;;5.23;;
18084;SDS011;9169;44.492;11.372;2022-09-28T14:52:16;44.83;;;6.67;;
18084;SDS011;9169;44.492;11.372;2022-09-28T14:55:06;68.40;;;14.90;;
18084;SDS011;9169;44.492;11.372;2022-09-28T14:57:39;57.57;;;10.53;;
18084;SDS011;9169;44.492;11.372;2022-09-28T15:00:09;41.20;;;2.30;;
18084;SDS011;9169;44.492;11.372;2022-09-28T15:02:43;40.00;;;2.33;;
18084;SDS011;9169;44.492;11.372;2022-09-28T15:05:17;40.10;;;2.37;;
18084;SDS011;9169;44.492;11.372;2022-09-28T15:07:48;40.13;;;2.50;;
18084;SDS011;9169;44.492;11.372;2022-09-28T15:10:24;38.97;;;2.03;;
18084;SDS011;9169;44.492;11.372;2022-09-28T15:12:56;41.63;;;3.10;;
18084;SDS011;9169;44.492;11.372;2022-09-28T15:15:32;40.77;;;2.50;;
18084;SDS011;9169;44.492;11.372;2022-09-28T15:18:02;39.70;;;2.00;;
18084;SDS011;9169;44.492;11.372;2022-09-28T15:20:43;42.47;;;2.00;;
18084;SDS011;9169;44.492;11.372;2022-09-28T15:23:22;39.60;;;2.30;;
18084;SDS011;9169;44.492;11.372;2022-09-28T15:25:58;38.60;;;1.93;;
18084;SDS011;9169;44.492;11.372;2022-09-28T15:28:26;38.30;;;1.90;;
18084;SDS011;9169;44.492;11.372;2022-09-28T15:30:57;38.43;;;2.10;;
18084;SDS011;9169;44.492;11.372;2022-09-28T15:33:25;38.53;;;2.00;;
18084;SDS011;9169;44.492;11.372;2022-09-28T15:36:13;38.93;;;2.23;;
18084;SDS011;9169;44.492;11.372;2022-09-28T15:38:45;40.20;;;2.20;;